Time;durP1;ratioP1;P1;durP2;ratioP2;P2;SDS_P1;SDS_P2;PMS_P1;PMS_P2;Temp;Humidity;BMP_temperature;BMP_pressure;BME280_temperature;BME280_humidity;BME280_pressure;Samples;Min_cycle;Max_cycle;Signal;HPM_P1;HPM_P2
2022/12/09 00:00:28;;;;;;;20.13;9.65;;;;;;;;;;5074617;28;20030;-56
2022/12/09 00:02:53;;;;;;;22.23;11.38;;;;;;;;;;5068435;28;20017;-57
2022/12/09 00:05:19;;;;;;;22.42;10.38;;;;;;;;;;5080207;28;20139;-58
2022/12/09 00:07:44;;;;;;;20.67;11.38;;;;;;;;;;5068424;28;20104;-57
2022/12/09 00:10:09;;;;;;;20.27;10.80;;;;;;;;;;5081476;28;20028;-57
2022/12/09 00:12:34;;;;;;;19.90;10.25;;;;;;;;;;5084210;28;20419;-57
2022/12/09 00:15:01;;;;;;;21.92;11.35;;;;;;;;;;5085015;28;20105;-57
2022/12/09 00:17:26;;;;;;;24.13;12.77;;;;;;;;;;5074320;28;20232;-57
2022/12/09 00:19:51;;;;;;;26.38;11.43;;;;;;;;;;5082153;28;20035;-57
2022/12/09 00:22:16;;;;;;;23.48;11.77;;;;;;;;;;5069432;28;20442;-57
2022/12/09 00:24:42;;;;;;;22.00;10.13;;;;;;;;;;5071940;28;20286;-57
2022/12/09 00:27:07;;;;;;;27.83;12.65;;;;;;;;;;5075268;28;20022;-57
2022/12/09 00:29:32;;;;;;;27.10;10.50;;;;;;;;;;5071319;28;20040;-57
2022/12/09 00:31:57;;;;;;;21.10;8.27;;;;;;;;;;5075070;28;20024;-57
2022/12/09 00:34:23;;;;;;;15.43;8.80;;;;;;;;;;5081938;28;20040;-57
2022/12/09 00:36:48;;;;;;;20.05;10.75;;;;;;;;;;5076249;28;20023;-57
2022/12/09 00:39:13;;;;;;;21.45;11.57;;;;;;;;;;5071162;28;20036;-56
2022/12/09 00:41:38;;;;;;;22.50;11.18;;;;;;;;;;5073959;28;20024;-57
2022/12/09 00:44:04;;;;;;;18.38;10.50;;;;;;;;;;5070149;28;20085;-57
2022/12/09 00:46:29;;;;;;;24.60;12.35;;;;;;;;;;5084208;28;20454;-57
2022/12/09 00:48:54;;;;;;;17.20;10.45;;;;;;;;;;5073732;28;20492;-57
2022/12/09 00:51:20;;;;;;;20.08;10.52;;;;;;;;;;5072602;28;20510;-56
2022/12/09 00:53:46;;;;;;;22.05;10.45;;;;;;;;;;5070635;28;20040;-57
2022/12/09 00:56:11;;;;;;;18.30;10.35;;;;;;;;;;5073612;28;20031;-57
2022/12/09 00:58:36;;;;;;;20.98;11.05;;;;;;;;;;5073145;28;20475;-56
2022/12/09 01:01:02;;;;;;;28.13;15.45;;;;;;;;;;5066171;28;20025;-57
2022/12/09 01:03:27;;;;;;;21.25;12.18;;;;;;;;;;5078864;28;20024;-57
2022/12/09 01:05:53;;;;;;;22.00;12.10;;;;;;;;;;5073770;28;20093;-57
2022/12/09 01:08:18;;;;;;;18.38;11.05;;;;;;;;;;5069926;28;20474;-57
2022/12/09 01:10:43;;;;;;;20.48;11.30;;;;;;;;;;5075076;28;20024;-58
2022/12/09 01:13:09;;;;;;;20.70;10.40;;;;;;;;;;5077167;28;20036;-56
2022/12/09 01:15:34;;;;;;;21.08;10.00;;;;;;;;;;5077774;28;20401;-56
2022/12/09 01:18:00;;;;;;;19.45;10.48;;;;;;;;;;5070298;28;20024;-58
2022/12/09 01:20:25;;;;;;;23.88;12.02;;;;;;;;;;5072390;28;20043;-56
2022/12/09 01:22:50;;;;;;;20.48;11.48;;;;;;;;;;5067806;28;20516;-57
2022/12/09 01:25:15;;;;;;;20.38;10.60;;;;;;;;;;5069783;28;20038;-57
2022/12/09 01:27:41;;;;;;;16.15;9.93;;;;;;;;;;5072584;28;20024;-58
2022/12/09 01:30:06;;;;;;;20.08;10.68;;;;;;;;;;5069944;28;20050;-57
2022/12/09 01:32:32;;;;;;;20.83;11.10;;;;;;;;;;5072649;28;20051;-58
2022/12/09 01:34:57;;;;;;;20.50;10.85;;;;;;;;;;5073034;28;20398;-57
2022/12/09 01:37:22;;;;;;;25.77;11.95;;;;;;;;;;5076762;28;20024;-57
2022/12/09 01:39:47;;;;;;;21.48;10.80;;;;;;;;;;5073278;28;20016;-58
2022/12/09 01:42:20;;;;;;;21.13;10.93;;;;;;;;;;5077968;28;20058;-58
2022/12/09 01:45:04;;;;;;;20.17;10.25;;;;;;;;;;5068999;28;20020;-57
2022/12/09 01:47:30;;;;;;;16.55;9.02;;;;;;;;;;5072045;28;20101;-57
2022/12/09 01:49:55;;;;;;;17.73;10.00;;;;;;;;;;5077595;28;20452;-58
2022/12/09 01:52:21;;;;;;;20.90;11.43;;;;;;;;;;5078607;28;20160;-57
2022/12/09 01:54:46;;;;;;;23.05;11.63;;;;;;;;;;5074018;28;20524;-56
2022/12/09 01:57:11;;;;;;;25.25;11.88;;;;;;;;;;5071576;28;20063;-57
2022/12/09 01:59:37;;;;;;;21.20;10.90;;;;;;;;;;5075608;28;20358;-58
2022/12/09 02:02:02;;;;;;;21.05;10.45;;;;;;;;;;5074961;28;20362;-57
2022/12/09 02:04:28;;;;;;;21.65;10.20;;;;;;;;;;5076783;28;20024;-58
2022/12/09 02:06:53;;;;;;;21.08;10.25;;;;;;;;;;5067195;28;20411;-57
2022/12/09 02:09:18;;;;;;;18.75;10.38;;;;;;;;;;5077738;28;20063;-57
2022/12/09 02:11:46;;;;;;;17.17;8.98;;;;;;;;;;5072215;28;20020;-58
2022/12/09 02:14:21;;;;;;;18.40;9.43;;;;;;;;;;5072219;28;20032;-57
2022/12/09 02:16:50;;;;;;;21.17;9.90;;;;;;;;;;5067894;28;20398;-58
2022/12/09 02:19:34;;;;;;;19.52;9.63;;;;;;;;;;5073514;28;20028;-58
2022/12/09 02:21:59;;;;;;;19.63;10.73;;;;;;;;;;5071348;28;20024;-57
2022/12/09 02:24:24;;;;;;;22.23;11.45;;;;;;;;;;5068386;28;20122;-57
2022/12/09 02:26:58;;;;;;;18.90;11.15;;;;;;;;;;5076648;28;20047;-59
2022/12/09 02:29:42;;;;;;;19.55;10.52;;;;;;;;;;5084126;28;20043;-57
2022/12/09 02:32:13;;;;;;;22.15;11.57;;;;;;;;;;5081563;28;20027;-56
2022/12/09 02:34:58;;;;;;;22.00;11.60;;;;;;;;;;5073908;28;20497;-57
2022/12/09 02:37:42;;;;;;;23.25;11.75;;;;;;;;;;5076910;28;20094;-56
2022/12/09 02:40:10;;;;;;;24.23;12.43;;;;;;;;;;5079827;28;20032;-57
2022/12/09 02:42:35;;;;;;;20.85;10.55;;;;;;;;;;5077453;28;20034;-57
2022/12/09 02:45:04;;;;;;;38.10;18.35;;;;;;;;;;5078550;28;20442;-56
2022/12/09 02:47:30;;;;;;;69.68;31.58;;;;;;;;;;5076377;28;20028;-57
2022/12/09 02:49:57;;;;;;;57.05;26.83;;;;;;;;;;5074642;28;20032;-55
2022/12/09 02:52:22;;;;;;;40.20;20.55;;;;;;;;;;5071598;28;20418;-56
2022/12/09 02:54:48;;;;;;;44.15;21.17;;;;;;;;;;5073766;28;20087;-56
2022/12/09 02:57:15;;;;;;;24.05;12.48;;;;;;;;;;5073652;28;20671;-56
2022/12/09 02:59:40;;;;;;;26.85;13.38;;;;;;;;;;5071975;28;20796;-56
2022/12/09 03:02:11;;;;;;;30.88;15.48;;;;;;;;;;5073536;28;20031;-56
2022/12/09 03:04:37;;;;;;;24.75;12.57;;;;;;;;;;5069604;28;20046;-56
2022/12/09 03:07:11;;;;;;;23.38;11.95;;;;;;;;;;5056401;28;20061;-55
2022/12/09 03:09:36;;;;;;;20.08;11.07;;;;;;;;;;5075263;28;20031;-56
2022/12/09 03:12:03;;;;;;;20.70;10.48;;;;;;;;;;5080719;28;20034;-57
2022/12/09 03:14:31;;;;;;;25.08;10.45;;;;;;;;;;5071663;28;20032;-58
2022/12/09 03:17:03;;;;;;;18.13;10.63;;;;;;;;;;5065936;28;20081;-57
2022/12/09 03:19:28;;;;;;;20.10;9.88;;;;;;;;;;5078342;28;20042;-57
2022/12/09 03:21:54;;;;;;;18.38;10.13;;;;;;;;;;5076722;28;20024;-57
2022/12/09 03:24:21;;;;;;;17.48;9.52;;;;;;;;;;5075161;28;20132;-57
2022/12/09 03:26:46;;;;;;;17.60;10.23;;;;;;;;;;5072687;28;20027;-57
2022/12/09 03:29:16;;;;;;;18.77;10.68;;;;;;;;;;5077386;28;20024;-58
2022/12/09 03:31:41;;;;;;;18.63;10.13;;;;;;;;;;5061249;28;20027;-57
2022/12/09 03:34:06;;;;;;;20.40;10.30;;;;;;;;;;5074434;28;20036;-58
2022/12/09 03:36:36;;;;;;;16.30;9.98;;;;;;;;;;5080100;28;20029;-57
2022/12/09 03:39:01;;;;;;;17.77;10.23;;;;;;;;;;5082057;28;20074;-57
2022/12/09 03:41:28;;;;;;;26.83;12.13;;;;;;;;;;5079415;28;20435;-57
2022/12/09 03:43:54;;;;;;;24.77;12.27;;;;;;;;;;5072361;28;20024;-57
2022/12/09 03:46:20;;;;;;;28.55;14.75;;;;;;;;;;5070500;28;20024;-58
2022/12/09 03:48:45;;;;;;;27.20;14.05;;;;;;;;;;5071807;28;20088;-57
2022/12/09 03:51:34;;;;;;;27.88;13.30;;;;;;;;;;5071831;28;20131;-57
2022/12/09 03:54:08;;;;;;;20.08;12.02;;;;;;;;;;5073780;28;20044;-57
2022/12/09 03:56:36;;;;;;;24.05;12.25;;;;;;;;;;5072897;28;20043;-57
2022/12/09 03:59:02;;;;;;;22.08;12.30;;;;;;;;;;5065853;28;20063;-57
2022/12/09 04:01:27;;;;;;;27.33;13.70;;;;;;;;;;5101420;27;20047;-57
2022/12/09 04:03:53;;;;;;;28.35;13.60;;;;;;;;;;5078049;28;20012;-56
2022/12/09 04:06:18;;;;;;;25.20;12.02;;;;;;;;;;5072377;28;20090;-56
2022/12/09 04:08:44;;;;;;;20.45;10.48;;;;;;;;;;5071366;28;20554;-56
2022/12/09 04:11:09;;;;;;;22.88;10.82;;;;;;;;;;5063148;28;20032;-56
2022/12/09 04:13:34;;;;;;;19.60;10.20;;;;;;;;;;5074415;28;20032;-57
2022/12/09 04:15:59;;;;;;;16.67;10.18;;;;;;;;;;5075088;28;20127;-56
2022/12/09 04:18:25;;;;;;;18.65;9.95;;;;;;;;;;5071657;28;20024;-57
2022/12/09 04:20:50;;;;;;;18.85;9.90;;;;;;;;;;5074391;28;20532;-56
2022/12/09 04:23:15;;;;;;;21.00;10.88;;;;;;;;;;5074082;28;20032;-56
2022/12/09 04:25:40;;;;;;;21.33;10.52;;;;;;;;;;5066574;28;20111;-56
2022/12/09 04:28:06;;;;;;;20.20;10.18;;;;;;;;;;5075368;28;20690;-57
2022/12/09 04:30:31;;;;;;;23.00;11.10;;;;;;;;;;5077005;28;20035;-57
2022/12/09 04:32:57;;;;;;;22.70;11.98;;;;;;;;;;5073801;28;20905;-56
2022/12/09 04:35:23;;;;;;;25.30;10.73;;;;;;;;;;5071636;28;20043;-56
2022/12/09 04:37:48;;;;;;;20.73;12.40;;;;;;;;;;5079549;28;20389;-56
2022/12/09 04:40:13;;;;;;;23.33;11.15;;;;;;;;;;5070805;28;20021;-55
2022/12/09 04:42:38;;;;;;;25.00;11.32;;;;;;;;;;5068231;28;20028;-55
2022/12/09 04:45:04;;;;;;;23.38;11.57;;;;;;;;;;5076304;28;20081;-56
2022/12/09 04:47:29;;;;;;;21.35;11.38;;;;;;;;;;5069527;28;20059;-57
2022/12/09 04:49:54;;;;;;;22.10;12.02;;;;;;;;;;5075904;28;20050;-57
2022/12/09 04:52:20;;;;;;;21.80;11.48;;;;;;;;;;5072631;28;20115;-57
2022/12/09 04:54:45;;;;;;;22.58;11.27;;;;;;;;;;5075658;28;20051;-57
2022/12/09 04:57:10;;;;;;;21.83;11.52;;;;;;;;;;5069814;28;20020;-57
2022/12/09 04:59:36;;;;;;;22.92;11.10;;;;;;;;;;5076223;28;20028;-56
2022/12/09 05:02:01;;;;;;;25.42;11.75;;;;;;;;;;5071540;28;20036;-56
2022/12/09 05:04:26;;;;;;;21.42;11.60;;;;;;;;;;5072556;28;20020;-57
2022/12/09 05:06:51;;;;;;;28.98;13.20;;;;;;;;;;5075759;28;20244;-56
2022/12/09 05:09:17;;;;;;;23.52;11.48;;;;;;;;;;5067829;28;20028;-60
2022/12/09 05:11:42;;;;;;;23.35;12.90;;;;;;;;;;5071798;28;20034;-58
2022/12/09 05:14:07;;;;;;;20.92;11.32;;;;;;;;;;5074319;28;20033;-58
2022/12/09 05:16:32;;;;;;;19.58;11.88;;;;;;;;;;5071442;28;20012;-58
2022/12/09 05:18:58;;;;;;;23.33;12.07;;;;;;;;;;5073455;28;20032;-57
2022/12/09 05:21:23;;;;;;;24.73;12.68;;;;;;;;;;5077238;28;20486;-58
2022/12/09 05:23:48;;;;;;;21.85;13.02;;;;;;;;;;5077116;28;20038;-58
2022/12/09 05:26:14;;;;;;;21.10;12.25;;;;;;;;;;5072877;28;20477;-58
2022/12/09 05:28:39;;;;;;;18.98;11.15;;;;;;;;;;5081796;28;20038;-58
2022/12/09 05:31:09;;;;;;;19.80;11.10;;;;;;;;;;5076224;28;20382;-58
2022/12/09 05:33:35;;;;;;;21.38;11.43;;;;;;;;;;5073999;28;20075;-57
2022/12/09 05:36:00;;;;;;;21.25;11.52;;;;;;;;;;5077048;28;20096;-57
2022/12/09 05:38:25;;;;;;;23.00;11.32;;;;;;;;;;5076634;28;20506;-57
2022/12/09 05:40:51;;;;;;;21.17;12.13;;;;;;;;;;5079389;28;20035;-57
2022/12/09 05:43:16;;;;;;;23.98;12.68;;;;;;;;;;5075225;28;20024;-57
2022/12/09 05:45:41;;;;;;;24.48;12.80;;;;;;;;;;5072993;28;20439;-59
2022/12/09 05:48:07;;;;;;;21.75;12.02;;;;;;;;;;5072543;28;20043;-55
2022/12/09 05:50:32;;;;;;;22.95;12.10;;;;;;;;;;5073985;28;20036;-57
2022/12/09 05:52:57;;;;;;;23.55;12.80;;;;;;;;;;5081648;28;20027;-57
2022/12/09 05:55:22;;;;;;;23.48;13.07;;;;;;;;;;5082854;28;20552;-55
2022/12/09 05:57:47;;;;;;;25.00;13.48;;;;;;;;;;5070460;28;20545;-56
2022/12/09 06:00:13;;;;;;;21.98;13.00;;;;;;;;;;5081419;28;20585;-57
2022/12/09 06:02:38;;;;;;;25.60;13.80;;;;;;;;;;5077466;28;20535;-57
2022/12/09 06:05:04;;;;;;;24.80;13.85;;;;;;;;;;5073203;28;20559;-55
2022/12/09 06:07:29;;;;;;;25.75;13.05;;;;;;;;;;5078833;28;20557;-59
2022/12/09 06:09:54;;;;;;;25.73;12.85;;;;;;;;;;5077874;28;20394;-58
2022/12/09 06:12:19;;;;;;;23.65;12.10;;;;;;;;;;5082310;28;21849;-58
2022/12/09 06:14:45;;;;;;;24.60;12.82;;;;;;;;;;5075116;28;20069;-58
2022/12/09 06:17:10;;;;;;;23.40;13.13;;;;;;;;;;5080381;28;20032;-57
2022/12/09 06:19:35;;;;;;;24.70;14.27;;;;;;;;;;5076161;28;20024;-57
2022/12/09 06:22:00;;;;;;;21.98;12.25;;;;;;;;;;5072741;28;20099;-57
2022/12/09 06:24:26;;;;;;;24.30;13.73;;;;;;;;;;5071908;28;20546;-55
2022/12/09 06:26:54;;;;;;;25.83;13.25;;;;;;;;;;5070164;28;20703;-58
2022/12/09 06:29:19;;;;;;;26.13;13.25;;;;;;;;;;5070834;28;20402;-55
2022/12/09 06:31:44;;;;;;;27.02;13.82;;;;;;;;;;5066793;28;20083;-55
2022/12/09 06:34:09;;;;;;;27.90;14.45;;;;;;;;;;5070702;28;20465;-57
2022/12/09 06:36:35;;;;;;;27.10;14.30;;;;;;;;;;5074785;28;20238;-57
2022/12/09 06:39:00;;;;;;;24.98;13.48;;;;;;;;;;5078929;28;20082;-56
2022/12/09 06:41:25;;;;;;;24.63;13.13;;;;;;;;;;5074788;28;20367;-56
2022/12/09 06:43:51;;;;;;;27.10;13.80;;;;;;;;;;5074568;28;20039;-57
2022/12/09 06:46:21;;;;;;;24.70;13.48;;;;;;;;;;5073591;28;20530;-56
2022/12/09 06:48:46;;;;;;;;;;;;;;;;;;5076815;28;20119;-55
2022/12/09 06:51:12;;;;;;;22.92;12.20;;;;;;;;;;5075452;28;19999;-55
2022/12/09 06:53:37;;;;;;;26.83;13.13;;;;;;;;;;5081700;28;20312;-58
2022/12/09 06:56:03;;;;;;;27.17;12.57;;;;;;;;;;5077604;28;20333;-56
2022/12/09 06:58:28;;;;;;;28.92;14.27;;;;;;;;;;5079801;28;20024;-57
2022/12/09 07:00:53;;;;;;;25.40;12.73;;;;;;;;;;5068678;28;20481;-58
2022/12/09 07:03:19;;;;;;;29.23;13.93;;;;;;;;;;5075422;28;20027;-59
2022/12/09 07:05:44;;;;;;;40.75;15.25;;;;;;;;;;5079403;28;20052;-57
2022/12/09 07:08:09;;;;;;;44.42;15.85;;;;;;;;;;5074951;28;20052;-60
2022/12/09 07:10:35;;;;;;;44.63;17.40;;;;;;;;;;5063906;28;20024;-59
2022/12/09 07:13:00;;;;;;;40.03;17.75;;;;;;;;;;5077299;28;20020;-57
2022/12/09 07:15:25;;;;;;;39.90;15.55;;;;;;;;;;5082047;28;20032;-57
2022/12/09 07:17:50;;;;;;;47.03;16.70;;;;;;;;;;5077437;28;20055;-57
2022/12/09 07:20:16;;;;;;;55.30;17.02;;;;;;;;;;5074954;28;20026;-57
2022/12/09 07:22:41;;;;;;;50.45;18.05;;;;;;;;;;5073884;28;20674;-59
2022/12/09 07:25:07;;;;;;;79.80;18.00;;;;;;;;;;5076837;28;20090;-57
2022/12/09 07:27:32;;;;;;;79.22;19.67;;;;;;;;;;5076343;28;20027;-58
2022/12/09 07:29:57;;;;;;;73.13;17.33;;;;;;;;;;5077828;28;20020;-57
2022/12/09 07:32:22;;;;;;;73.80;17.25;;;;;;;;;;5077597;28;20539;-56
2022/12/09 07:34:47;;;;;;;61.63;16.77;;;;;;;;;;5071562;28;20037;-56
2022/12/09 07:37:13;;;;;;;53.40;16.15;;;;;;;;;;5086011;28;20526;-56
2022/12/09 07:39:38;;;;;;;114.45;17.73;;;;;;;;;;5078585;28;20020;-57
2022/12/09 07:42:03;;;;;;;94.28;16.85;;;;;;;;;;5077285;28;20530;-55
2022/12/09 07:44:29;;;;;;;52.42;17.20;;;;;;;;;;5075653;28;20085;-55
2022/12/09 07:46:54;;;;;;;60.63;16.73;;;;;;;;;;5072606;28;20028;-56
2022/12/09 07:49:19;;;;;;;67.45;19.10;;;;;;;;;;5074804;28;20660;-56
2022/12/09 07:51:44;;;;;;;116.03;20.58;;;;;;;;;;5075013;28;20023;-56
2022/12/09 07:54:14;;;;;;;66.25;19.55;;;;;;;;;;5076105;28;20044;-55
2022/12/09 07:56:40;;;;;;;56.50;19.02;;;;;;;;;;5074615;28;20055;-56
2022/12/09 07:59:06;;;;;;;54.38;19.00;;;;;;;;;;5072733;28;20062;-56
2022/12/09 08:01:31;;;;;;;56.08;20.75;;;;;;;;;;5079624;28;20016;-56
2022/12/09 08:03:56;;;;;;;62.38;17.88;;;;;;;;;;5076985;28;20167;-56
2022/12/09 08:06:22;;;;;;;59.63;19.50;;;;;;;;;;5073435;28;20478;-55
2022/12/09 08:08:48;;;;;;;50.90;18.63;;;;;;;;;;5074562;28;20020;-57
2022/12/09 08:11:17;;;;;;;65.90;18.25;;;;;;;;;;5071171;28;20364;-57
2022/12/09 08:13:42;;;;;;;50.45;18.77;;;;;;;;;;5072185;28;20032;-58
2022/12/09 08:16:08;;;;;;;69.57;18.45;;;;;;;;;;5075790;28;20039;-56
2022/12/09 08:18:34;;;;;;;65.50;17.27;;;;;;;;;;5078762;28;20015;-56
2022/12/09 08:21:01;;;;;;;92.13;18.05;;;;;;;;;;5071759;28;20482;-57
2022/12/09 08:23:27;;;;;;;74.57;18.02;;;;;;;;;;5080150;28;20038;-56
2022/12/09 08:25:53;;;;;;;65.53;19.15;;;;;;;;;;5069240;28;20020;-57
2022/12/09 08:28:18;;;;;;;62.90;18.05;;;;;;;;;;5065563;28;20045;-57
2022/12/09 08:30:43;;;;;;;71.97;14.93;;;;;;;;;;5068036;28;20017;-56
2022/12/09 08:33:09;;;;;;;78.60;15.45;;;;;;;;;;5080412;28;20054;-57
2022/12/09 08:35:35;;;;;;;43.42;17.15;;;;;;;;;;5074589;28;20071;-56
2022/12/09 08:38:01;;;;;;;47.60;15.45;;;;;;;;;;5067862;28;20024;-56
2022/12/09 08:40:26;;;;;;;79.25;15.88;;;;;;;;;;5074155;28;20560;-56
2022/12/09 08:42:51;;;;;;;102.97;17.30;;;;;;;;;;5069926;28;20013;-57
2022/12/09 08:45:16;;;;;;;109.95;17.67;;;;;;;;;;5071973;28;20024;-57
2022/12/09 08:47:42;;;;;;;110.95;16.80;;;;;;;;;;5072997;28;20394;-56
2022/12/09 08:50:08;;;;;;;87.00;16.52;;;;;;;;;;5072710;28;20539;-56
2022/12/09 08:52:33;;;;;;;47.30;17.17;;;;;;;;;;5069512;28;20072;-55
2022/12/09 08:54:58;;;;;;;88.20;17.88;;;;;;;;;;5072444;28;20394;-58
2022/12/09 08:57:23;;;;;;;54.78;16.20;;;;;;;;;;5069538;28;20026;-57
2022/12/09 08:59:49;;;;;;;41.03;16.70;;;;;;;;;;5070088;28;20025;-57
2022/12/09 09:02:14;;;;;;;43.85;17.10;;;;;;;;;;5070807;28;20359;-56
2022/12/09 09:04:40;;;;;;;43.15;17.75;;;;;;;;;;5076308;28;20055;-57
2022/12/09 09:07:05;;;;;;;47.03;18.58;;;;;;;;;;5075554;28;20458;-57
2022/12/09 09:09:30;;;;;;;42.92;17.90;;;;;;;;;;5069165;28;20103;-58
2022/12/09 09:11:55;;;;;;;45.17;17.50;;;;;;;;;;5072643;28;20027;-56
2022/12/09 09:14:21;;;;;;;41.28;17.80;;;;;;;;;;5072793;28;20036;-56
2022/12/09 09:16:46;;;;;;;41.72;18.92;;;;;;;;;;5067363;28;20016;-57
2022/12/09 09:19:15;;;;;;;43.65;17.40;;;;;;;;;;5068362;28;20047;-56
2022/12/09 09:21:40;;;;;;;42.35;17.85;;;;;;;;;;5074888;28;20032;-57
2022/12/09 09:24:09;;;;;;;42.92;18.33;;;;;;;;;;5074992;28;20088;-57
2022/12/09 09:26:35;;;;;;;34.67;17.25;;;;;;;;;;5072059;28;21193;-57
2022/12/09 09:29:00;;;;;;;41.05;17.10;;;;;;;;;;5080477;28;20032;-58
2022/12/09 09:31:25;;;;;;;42.20;18.55;;;;;;;;;;5073843;28;20479;-58
2022/12/09 09:33:50;;;;;;;38.65;17.98;;;;;;;;;;5072426;28;20127;-57
2022/12/09 09:36:19;;;;;;;41.13;17.75;;;;;;;;;;5062229;28;20491;-57
2022/12/09 09:38:44;;;;;;;38.55;16.60;;;;;;;;;;5076565;28;20107;-57
2022/12/09 09:41:28;;;;;;;39.58;18.13;;;;;;;;;;5066181;28;20185;-58
2022/12/09 09:43:53;;;;;;;39.45;17.05;;;;;;;;;;5073578;28;21765;-58
2022/12/09 09:46:41;;;;;;;36.13;17.27;;;;;;;;;;5073383;28;20433;-57
2022/12/09 09:49:08;;;;;;;36.40;16.65;;;;;;;;;;5072584;28;20024;-57
2022/12/09 09:51:34;;;;;;;39.50;17.27;;;;;;;;;;5075260;28;20029;-58
2022/12/09 09:53:59;;;;;;;40.67;17.17;;;;;;;;;;5072109;28;20044;-57
2022/12/09 09:56:30;;;;;;;42.08;17.92;;;;;;;;;;5073167;28;20032;-58
2022/12/09 09:59:17;;;;;;;41.75;18.13;;;;;;;;;;5069131;28;20449;-58
2022/12/09 10:01:44;;;;;;;42.13;19.00;;;;;;;;;;5090282;28;20032;-58
2022/12/09 10:04:12;;;;;;;52.78;21.23;;;;;;;;;;5078188;28;21860;-57
2022/12/09 10:06:49;;;;;;;47.20;19.77;;;;;;;;;;5075163;28;20044;-57
2022/12/09 10:09:38;;;;;;;47.60;20.92;;;;;;;;;;5074292;28;20024;-57
2022/12/09 10:12:14;;;;;;;44.70;19.70;;;;;;;;;;5067739;28;20425;-57
2022/12/09 10:14:58;;;;;;;54.95;19.55;;;;;;;;;;5067712;28;20067;-57
2022/12/09 10:17:28;;;;;;;44.83;17.10;;;;;;;;;;5073569;28;20020;-57
2022/12/09 10:19:55;;;;;;;42.85;18.42;;;;;;;;;;5073772;28;20039;-56
2022/12/09 10:22:20;;;;;;;46.85;19.15;;;;;;;;;;5077386;28;20021;-57
2022/12/09 10:24:47;;;;;;;42.65;18.73;;;;;;;;;;5070597;28;20022;-57
2022/12/09 10:27:14;;;;;;;41.40;18.33;;;;;;;;;;5054208;28;20028;-57
2022/12/09 10:29:45;;;;;;;43.30;18.42;;;;;;;;;;5071441;28;20635;-57
2022/12/09 10:32:15;;;;;;;42.30;19.60;;;;;;;;;;5067967;28;20032;-57
2022/12/09 10:34:40;;;;;;;35.95;16.45;;;;;;;;;;5070921;28;20504;-57
2022/12/09 10:37:07;;;;;;;40.55;17.45;;;;;;;;;;5069249;28;20036;-57
2022/12/09 10:39:33;;;;;;;37.17;18.73;;;;;;;;;;5071240;28;20032;-55
2022/12/09 10:44:42;;;;;;;37.88;19.40;;;;;;;;;;5074476;28;20030;-56
2022/12/09 10:47:18;;;;;;;40.42;19.52;;;;;;;;;;5074369;28;20028;-58
2022/12/09 10:49:43;;;;;;;38.65;17.90;;;;;;;;;;5070552;28;20023;-57
2022/12/09 10:52:09;;;;;;;36.17;19.63;;;;;;;;;;5069431;28;20036;-57
2022/12/09 10:54:35;;;;;;;38.38;18.20;;;;;;;;;;5070276;28;20494;-58
2022/12/09 10:57:01;;;;;;;33.88;17.83;;;;;;;;;;5080960;28;20024;-58
2022/12/09 10:59:28;;;;;;;38.72;18.30;;;;;;;;;;5076682;28;20107;-56
2022/12/09 11:01:53;;;;;;;39.00;18.67;;;;;;;;;;5075705;28;20159;-56
2022/12/09 11:04:24;;;;;;;38.13;20.08;;;;;;;;;;5077838;28;20485;-56
2022/12/09 11:06:49;;;;;;;36.47;19.52;;;;;;;;;;5073369;28;20025;-56
2022/12/09 11:09:19;;;;;;;34.78;19.20;;;;;;;;;;5078108;28;20029;-56
2022/12/09 11:11:48;;;;;;;35.42;18.25;;;;;;;;;;5076007;28;20467;-56
2022/12/09 11:14:32;;;;;;;34.75;17.27;;;;;;;;;;5080466;28;20059;-57
2022/12/09 11:16:58;;;;;;;42.80;19.38;;;;;;;;;;5078412;28;20020;-56
2022/12/09 11:19:36;;;;;;;38.30;19.35;;;;;;;;;;5079318;28;20052;-57
2022/12/09 11:22:14;;;;;;;32.75;17.95;;;;;;;;;;5072590;28;20032;-57
2022/12/09 11:24:39;;;;;;;42.40;19.48;;;;;;;;;;5087660;27;20021;-57
2022/12/09 11:27:25;;;;;;;39.50;19.63;;;;;;;;;;5071076;28;20036;-56
2022/12/09 11:30:05;;;;;;;42.35;19.65;;;;;;;;;;5078488;28;20105;-56
2022/12/09 11:32:31;;;;;;;38.85;18.58;;;;;;;;;;5076005;28;20338;-56
2022/12/09 11:34:56;;;;;;;36.42;18.58;;;;;;;;;;5085229;28;20706;-56
2022/12/09 11:37:21;;;;;;;31.08;17.08;;;;;;;;;;5079148;28;20401;-56
2022/12/09 11:39:47;;;;;;;34.22;18.15;;;;;;;;;;5080071;28;20475;-56
2022/12/09 11:42:17;;;;;;;31.77;17.30;;;;;;;;;;5072446;28;20081;-55
2022/12/09 11:45:01;;;;;;;30.05;16.45;;;;;;;;;;5077648;28;20028;-58
2022/12/09 11:47:30;;;;;;;38.65;19.08;;;;;;;;;;5069231;28;20018;-58
2022/12/09 11:49:58;;;;;;;31.98;17.60;;;;;;;;;;5075954;28;20056;-56
2022/12/09 11:52:25;;;;;;;32.58;17.67;;;;;;;;;;5077829;28;20547;-59
2022/12/09 11:55:06;;;;;;;34.53;17.65;;;;;;;;;;5072831;28;20479;-55
2022/12/09 11:57:34;;;;;;;37.67;18.65;;;;;;;;;;5070281;28;20028;-57
2022/12/09 12:00:00;;;;;;;28.65;15.85;;;;;;;;;;5073494;28;20068;-56
2022/12/09 12:02:29;;;;;;;33.83;17.45;;;;;;;;;;5080644;28;20700;-55
2022/12/09 12:05:02;;;;;;;31.60;15.30;;;;;;;;;;5075389;28;20868;-56
2022/12/09 12:07:45;;;;;;;29.13;17.23;;;;;;;;;;5074671;28;20032;-56
2022/12/09 12:10:30;;;;;;;29.52;16.33;;;;;;;;;;5076309;28;20504;-57
2022/12/09 12:13:01;;;;;;;29.30;16.70;;;;;;;;;;5075061;28;20024;-56
2022/12/09 12:15:41;;;;;;;28.65;16.05;;;;;;;;;;5072593;28;20060;-56
2022/12/09 12:18:08;;;;;;;29.42;16.48;;;;;;;;;;5072443;28;20446;-57
2022/12/09 12:20:39;;;;;;;34.45;18.23;;;;;;;;;;5075492;28;20039;-57
2022/12/09 12:23:04;;;;;;;;;;;;;;;;;;5075201;28;20031;-56
2022/12/09 12:25:29;;;;;;;34.40;18.33;;;;;;;;;;5073449;28;19908;-57
2022/12/09 12:28:13;;;;;;;28.02;15.98;;;;;;;;;;5066364;28;20044;-55
2022/12/09 12:30:40;;;;;;;22.80;14.15;;;;;;;;;;5068908;28;20109;-56
2022/12/09 12:33:11;;;;;;;24.27;13.15;;;;;;;;;;5080453;28;20323;-56
2022/12/09 12:35:46;;;;;;;24.73;14.60;;;;;;;;;;5076304;28;20039;-58
2022/12/09 12:38:20;;;;;;;21.88;13.70;;;;;;;;;;5070331;28;20031;-56
2022/12/09 12:41:04;;;;;;;32.38;18.17;;;;;;;;;;5072333;28;20384;-56
2022/12/09 12:46:27;;;;;;;27.02;13.68;;;;;;;;;;5072129;28;20604;-56
2022/12/09 12:48:59;;;;;;;27.00;15.10;;;;;;;;;;5076811;28;20028;-57
2022/12/09 12:51:31;;;;;;;27.65;15.07;;;;;;;;;;5076163;28;20158;-56
2022/12/09 12:54:01;;;;;;;23.45;14.02;;;;;;;;;;5069065;28;20454;-57
2022/12/09 12:56:50;;;;;;;24.35;14.75;;;;;;;;;;5075176;28;20031;-56
2022/12/09 12:59:26;;;;;;;28.00;15.23;;;;;;;;;;5068704;28;20036;-57
2022/12/09 13:02:15;;;;;;;29.42;14.85;;;;;;;;;;5075091;28;20114;-58
2022/12/09 13:04:43;;;;;;;30.02;14.93;;;;;;;;;;5065707;28;20481;-56
2022/12/09 13:07:10;;;;;;;29.20;15.77;;;;;;;;;;5078691;28;20541;-56
2022/12/09 13:09:42;;;;;;;26.52;15.15;;;;;;;;;;5069700;28;20020;-56
2022/12/09 13:12:12;;;;;;;34.17;17.38;;;;;;;;;;5070494;28;20039;-57
2022/12/09 13:14:53;;;;;;;35.88;17.70;;;;;;;;;;5075065;28;20044;-57
2022/12/09 13:17:19;;;;;;;31.55;16.40;;;;;;;;;;5071949;28;20023;-57
2022/12/09 13:19:49;;;;;;;28.77;15.25;;;;;;;;;;5065957;28;20016;-57
2022/12/09 13:22:19;;;;;;;28.83;16.80;;;;;;;;;;5072885;28;20070;-57
2022/12/09 13:24:50;;;;;;;28.38;15.90;;;;;;;;;;5075712;28;20028;-57
2022/12/09 13:27:17;;;;;;;34.60;16.08;;;;;;;;;;5065393;28;20071;-56
2022/12/09 13:29:46;;;;;;;30.35;16.88;;;;;;;;;;5067432;28;20016;-56
2022/12/09 13:32:14;;;;;;;27.35;16.63;;;;;;;;;;5071969;28;20058;-58
2022/12/09 13:34:40;;;;;;;33.28;15.88;;;;;;;;;;5068562;28;20036;-58
2022/12/09 13:37:25;;;;;;;28.38;15.75;;;;;;;;;;5076956;28;20272;-58
2022/12/09 13:39:51;;;;;;;26.48;15.18;;;;;;;;;;5073117;28;20124;-57
2022/12/09 13:45:13;;;;;;;28.05;15.02;;;;;;;;;;5078681;28;20403;-58
2022/12/09 13:47:38;;;;;;;27.33;15.55;;;;;;;;;;5072959;28;20024;-58
2022/12/09 13:50:04;;;;;;;27.80;16.10;;;;;;;;;;5068720;28;20032;-57
2022/12/09 13:52:46;;;;;;;32.47;16.83;;;;;;;;;;5070056;28;20060;-57
2022/12/09 13:55:30;;;;;;;32.80;15.90;;;;;;;;;;5081478;28;20036;-58
2022/12/09 13:58:19;;;;;;;34.97;16.67;;;;;;;;;;5070039;28;20020;-57
2022/12/09 14:00:44;;;;;;;30.50;16.23;;;;;;;;;;5060540;28;20090;-58
2022/12/09 14:03:35;;;;;;;26.38;15.57;;;;;;;;;;5069944;28;20036;-56
2022/12/09 14:06:02;;;;;;;22.83;13.68;;;;;;;;;;5080411;28;20342;-57
2022/12/09 14:08:29;;;;;;;30.30;14.60;;;;;;;;;;5076366;28;20028;-58
2022/12/09 14:10:54;;;;;;;38.33;17.90;;;;;;;;;;5063493;28;20036;-57
2022/12/09 14:13:26;;;;;;;46.63;26.85;;;;;;;;;;5076236;28;20055;-56
2022/12/09 14:16:10;;;;;;;26.50;14.77;;;;;;;;;;5077309;28;20040;-57
2022/12/09 14:18:36;;;;;;;24.52;14.38;;;;;;;;;;5074614;28;20427;-57
2022/12/09 14:21:16;;;;;;;26.63;14.52;;;;;;;;;;5078552;28;20493;-57
2022/12/09 14:24:00;;;;;;;29.50;15.02;;;;;;;;;;5081155;28;20024;-56
2022/12/09 14:26:32;;;;;;;26.73;14.77;;;;;;;;;;5081719;28;20036;-57
2022/12/09 14:28:58;;;;;;;27.50;15.50;;;;;;;;;;5078838;28;20027;-58
2022/12/09 14:31:42;;;;;;;32.70;14.90;;;;;;;;;;5082080;28;20035;-57